Aérodrome :
LOGIN :

S'inscrire | Disclaimer

   EN    FR    IT 

 










Légende :    VFR   VFR Marginal   IFR   IFR Intensif   IFR Très Intensif
Visi : 
Plafond : 
>= 8 km
>= 3000ft
5 à 8 km
1000 à 3000 ft
1500m à 5 km
500 à 1000 ft
800 à 1500m
200 à 500 ft
< 800m
< 200 ft
Symboles :   Orages  Brouillard  Fortes neiges  Fortes précipitations  Vent > 20 kt
SIGMETs :   Divers  Orages  Givrage  Turbulence  Onde Orograph.  Cendres Volcan.






- Altitude de l'aérodrome : 844 ft
- Code IATA : OSR


LKMT - Ostrava-Mosnov

DERNIER METAR :
  • 122100Z 02005KT 3000 -RA BR OVC004 08/08 Q1003 NOSIG

METARs EXPIRÉS :
  • 122030Z 02006KT 2000 -RA BR OVC003 08/08 Q1004 NOSIG
  • 122000Z 03005KT 1700 -RA BR OVC002 08/08 Q1004 TEMPO 1200 RA BR
  • 121930Z 04003KT 1200 R22/1700D R04/1900D RA BR OVC002 08/08 Q1005 TEMPO 0600 RA FG
  • 121923Z 05003KT 1200 R22/1800N R04/2000D RA BR OVC002 08/08 Q1005 RMK REG QNH 1000
  • 121900Z 06002KT 1500 RA BR OVC002 08/08 Q1005 TEMPO 1200 RA BR
  • 121830Z 03003KT 2000 RA BR FEW003 BKN024 OVC028 08/08 Q1005 TEMPO 1200 RA BR BKN005

TAF AMD TAF LKMT
Valide du 12 à 19h jusqu'au 14 à 00h UTC


121936Z 1219/1400 04004KT 2000 RA BR OVC003
TEMPO 1219/1310 1200 RA BR OVC002
PROB30
TEMPO 1219/1310 0600 RA FG BKN001
TEMPO 1310/1318 4000 BR BKN005
BECMG 1316/1318 21010KT
TEMPO 1318/1400 1200 RA BR OVC002
PROB30
TEMPO 1318/1400 BKN001



MET'MAP, la Météo Aéronautique d'un coup d'oeil ! - Copyright ORBIFLY Décembre 2007 - Disclaimer

ORBIFLY MET'MAP TEAM :

Programmation & Développement : Alexandra Zaïnal
Conception & Développement : Baudouin d'Aumeries
Co-Programmation & Développement : Marc-Olivier Méhu
Soutien technique & logistique : Manuel Goepfert

Contact : metmap@orbifly.com




SOURCES & CREDITS :

   NOAA